Time;durP1;ratioP1;P1;durP2;ratioP2;P2;SDS_P1;SDS_P2;PMS_P1;PMS_P2;Temp;Humidity;BMP_temperature;BMP_pressure;BME280_temperature;BME280_humidity;BME280_pressure;Samples;Min_cycle;Max_cycle;Signal;HPM_P1;HPM_P2
2022/10/13 00:01:47;;;;;;;;;;;7.20;99.90;;;5.75;100.00;101204.34;4932079;28;19930;-83
2022/10/13 00:04:13;;;;;;;;;;;7.20;99.90;;;5.67;100.00;101202.47;4935639;28;19922;-82
2022/10/13 00:06:38;;;;;;;;;;;7.20;99.90;;;5.60;100.00;101209.59;4944280;28;19919;-82
2022/10/13 00:09:04;;;;;;;;;;;7.10;99.90;;;5.48;100.00;101206.38;4938739;28;19922;-81
2022/10/13 00:11:30;;;;;;;;;;;6.90;99.90;;;5.46;100.00;101194.88;4940498;28;20399;-82
2022/10/13 00:13:58;;;;;;;;;;;6.90;99.90;;;5.49;100.00;101199.13;4933686;28;19966;-82
2022/10/13 00:16:28;;;;;;;;;;;7.00;99.90;;;5.41;100.00;101192.69;4942430;28;20054;-82
2022/10/13 00:18:54;;;;;;;;;;;6.90;99.90;;;5.35;100.00;101187.13;4937408;28;19925;-82
2022/10/13 00:21:22;;;;;;;;;;;6.90;99.90;;;5.22;100.00;101187.63;4941348;28;19922;-83
2022/10/13 00:23:50;;;;;;;;;;;6.70;99.90;;;5.06;100.00;101180.34;4950046;28;19925;-81
2022/10/13 00:26:21;;;;;;;;;;;6.60;99.90;;;4.90;100.00;101180.13;4946332;28;19918;-82
2022/10/13 00:28:46;;;;;;;;;;;6.50;99.90;;;4.83;100.00;101178.28;4933349;29;20029;-82
2022/10/13 00:31:23;;;;;;;;;;;6.40;99.90;;;5.03;100.00;101179.63;4935648;29;19957;-82
2022/10/13 00:33:49;;;;;;;;;;;6.50;99.90;;;5.33;100.00;101184.56;4942776;28;19925;-83
2022/10/13 00:36:18;;;;;;;;;;;6.70;99.90;;;5.58;100.00;101188.13;4947595;28;19923;-83
2022/10/13 00:38:44;;;;;;;;;;;6.90;99.90;;;5.80;100.00;101191.13;4934867;29;19947;-82
2022/10/13 00:41:10;;;;;;;;;;;7.20;99.90;;;5.98;100.00;101190.94;4942425;28;19925;-83
2022/10/13 00:44:02;;;;;;;;;;;7.30;99.90;;;6.12;100.00;101191.25;4938146;28;20130;-82
2022/10/13 00:46:30;;;;;;;;;;;7.40;99.90;;;6.22;100.00;101188.34;4949208;28;20026;-84
2022/10/13 00:49:10;;;;;;;;;;;7.60;99.90;;;6.28;100.00;101184.94;4936605;28;19978;-83
2022/10/13 00:51:40;;;;;;;;;;;7.70;99.90;;;6.37;100.00;101186.59;4940606;28;20308;-82
2022/10/13 00:54:10;;;;;;;;;;;7.80;99.90;;;6.47;100.00;101189.09;4943830;28;19957;-82
2022/10/13 00:56:37;;;;;;;;;;;7.90;99.90;;;6.52;100.00;101181.28;4944886;28;19918;-82
2022/10/13 00:59:09;;;;;;;;;;;7.90;99.90;;;6.55;100.00;101188.22;4939066;28;19923;-83
2022/10/13 01:01:35;;;;;;;;;;;8.00;99.90;;;6.56;100.00;101182.63;4939937;29;19919;-81
2022/10/13 01:04:00;;;;;;;;;;;8.00;99.90;;;6.56;100.00;101184.47;4939900;28;19923;-82
2022/10/13 01:06:26;;;;;;;;;;;8.00;99.90;;;6.57;100.00;101188.88;4943241;28;19926;-82
2022/10/13 01:08:53;;;;;;;;;;;8.00;99.90;;;6.57;100.00;101189.72;4940849;29;20012;-82
2022/10/13 01:11:31;;;;;;;;;;;8.00;99.90;;;6.53;100.00;101182.13;4941195;28;19949;-82
2022/10/13 01:14:11;;;;;;;;;;;8.00;99.90;;;6.50;100.00;101187.91;4939281;29;19946;-82
2022/10/13 01:16:49;;;;;;;;;;;8.00;99.90;;;6.48;100.00;101178.06;4943936;28;19919;-81
2022/10/13 01:19:52;;;;;;;;;;;8.00;99.90;;;6.41;100.00;101179.81;4940374;28;20401;-81
2022/10/13 01:22:51;;;;;;;;;;;7.90;99.90;;;6.35;100.00;101179.66;4947393;28;19980;-81
2022/10/13 01:25:25;;;;;;;;;;;7.80;99.90;;;6.31;100.00;101179.16;4946959;28;19973;-81
2022/10/13 01:28:28;;;;;;;;;;;7.80;99.90;;;6.28;100.00;101176.81;4945522;28;19918;-81
2022/10/13 01:31:04;;;;;;;;;;;7.80;99.90;;;6.21;100.00;101165.81;4930673;28;20237;-81
2022/10/13 01:33:43;;;;;;;;;;;7.70;99.90;;;6.21;100.00;101179.34;4937480;28;20413;-81
2022/10/13 01:36:26;;;;;;;;;;;7.70;99.90;;;6.22;100.00;101172.09;4936814;29;20458;-82
2022/10/13 01:39:13;;;;;;;;;;;7.70;99.90;;;6.24;100.00;101165.50;4937179;28;19933;-82
2022/10/13 01:41:45;;;;;;;;;;;7.70;99.90;;;6.21;100.00;101160.38;4942153;29;20615;-82
2022/10/13 01:44:16;;;;;;;;;;;7.70;99.90;;;6.31;100.00;101158.34;4934149;28;19965;-81
2022/10/13 01:46:53;;;;;;;;;;;7.70;99.90;;;6.39;100.00;101162.88;4950236;28;19919;-82
2022/10/13 01:49:23;;;;;;;;;;;7.80;99.90;;;6.40;100.00;101159.16;4934214;28;20051;-81
2022/10/13 01:51:50;;;;;;;;;;;7.80;99.90;;;6.45;100.00;101156.75;4935979;28;19926;-81
2022/10/13 01:54:16;;;;;;;;;;;7.80;99.90;;;6.55;100.00;101150.25;4936298;28;19919;-82
2022/10/13 01:56:55;;;;;;;;;;;7.90;99.90;;;6.64;100.00;101151.91;4939232;28;20285;-80
2022/10/13 01:59:23;;;;;;;;;;;8.00;99.90;;;6.60;100.00;101146.00;4939918;29;19966;-81
2022/10/13 02:02:02;;;;;;;;;;;8.00;99.90;;;6.59;100.00;101140.72;4933173;28;19926;-81
2022/10/13 02:04:52;;;;;;;;;;;8.00;99.90;;;6.63;100.00;101139.38;4942967;28;20029;-80
2022/10/13 02:07:26;;;;;;;;;;;8.00;99.90;;;6.63;100.00;101136.66;4948007;28;19918;-81
2022/10/13 02:10:09;;;;;;;;;;;8.00;99.90;;;6.69;100.00;101135.94;4940594;28;19937;-79
2022/10/13 02:12:47;;;;;;;;;;;8.10;99.90;;;6.70;100.00;101134.91;4942235;29;19919;-80
2022/10/13 02:15:18;;;;;;;;;;;8.10;99.90;;;6.75;100.00;101137.94;4937342;28;19925;-81
2022/10/13 02:17:44;;;;;;;;;;;8.10;99.90;;;6.80;100.00;101133.84;4940114;29;20001;-81
2022/10/13 02:20:10;;;;;;;;;;;8.20;99.90;;;6.86;100.00;101135.81;4943575;28;20013;-81
2022/10/13 02:22:42;;;;;;;;;;;8.20;99.90;;;6.90;100.00;101129.03;4940630;28;19918;-82
2022/10/13 02:25:08;;;;;;;;;;;8.30;99.90;;;6.93;100.00;101119.66;4939986;28;20386;-81
2022/10/13 02:27:33;;;;;;;;;;;8.30;99.90;;;6.90;100.00;101115.47;4934135;28;19919;-81
2022/10/13 02:29:59;;;;;;;;;;;8.30;99.90;;;6.96;100.00;101122.03;4936018;29;19937;-81
2022/10/13 02:32:28;;;;;;;;;;;8.30;99.90;;;6.99;100.00;101113.50;4940272;28;19922;-82
2022/10/13 02:34:53;;;;;;;;;;;8.40;99.90;;;7.01;100.00;101119.59;4939914;28;19925;-82
2022/10/13 02:37:19;;;;;;;;;;;8.40;99.90;;;6.94;100.00;101107.78;4940545;28;19926;-81
2022/10/13 02:39:45;;;;;;;;;;;8.40;99.90;;;6.97;100.00;101116.44;4940816;28;19973;-81
2022/10/13 02:42:10;;;;;;;;;;;8.30;99.90;;;6.91;100.00;101111.72;4934202;28;19954;-82
2022/10/13 02:44:36;;;;;;;;;;;8.30;99.90;;;6.85;100.00;101107.00;4936713;28;19922;-82
2022/10/13 02:47:02;;;;;;;;;;;8.30;99.90;;;6.86;100.00;101114.13;4932247;28;20334;-82
2022/10/13 02:49:27;;;;;;;;;;;8.20;99.90;;;6.78;100.00;101114.19;4932515;28;19922;-82
2022/10/13 02:51:53;;;;;;;;;;;8.20;99.90;;;6.72;100.00;101113.88;4938747;28;19969;-82
2022/10/13 02:54:19;;;;;;;;;;;8.10;99.90;;;6.74;100.00;101114.56;4944981;28;19973;-82
2022/10/13 02:56:44;;;;;;;;;;;8.10;99.90;;;6.71;100.00;101117.63;4944373;28;20094;-82
2022/10/13 02:59:10;;;;;;;;;;;8.10;99.90;;;6.69;100.00;101116.09;4936106;28;19922;-82
2022/10/13 03:01:40;;;;;;;;;;;8.10;99.90;;;6.64;100.00;101115.81;4941311;28;19926;-81
2022/10/13 03:04:07;;;;;;;;;;;8.00;99.90;;;6.69;100.00;101114.25;4936124;28;19922;-81
2022/10/13 03:06:32;;;;;;;;;;;8.10;99.90;;;6.74;100.00;101113.69;4938635;28;20190;-82
2022/10/13 03:08:58;;;;;;;;;;;8.10;99.90;;;6.69;100.00;101111.53;4945046;28;20354;-82
2022/10/13 03:11:24;;;;;;;;;;;8.10;99.90;;;6.61;100.00;101108.88;4936935;28;20004;-82
2022/10/13 03:13:50;;;;;;;;;;;8.00;99.90;;;6.68;100.00;101104.44;4941167;28;20076;-82
2022/10/13 03:16:15;;;;;;;;;;;8.00;99.90;;;6.77;100.00;101102.50;4932935;28;19959;-82
2022/10/13 03:18:41;;;;;;;;;;;8.10;99.90;;;6.89;100.00;101101.06;4944119;28;19929;-82
2022/10/13 03:21:08;;;;;;;;;;;8.20;99.90;;;6.99;100.00;101100.81;4948980;29;19923;-82
2022/10/13 03:23:35;;;;;;;;;;;8.40;99.90;;;7.09;100.00;101103.28;4945964;28;20503;-82
2022/10/13 03:26:03;;;;;;;;;;;8.40;99.90;;;7.08;100.00;101098.88;4934401;28;19925;-78
2022/10/13 03:28:29;;;;;;;;;;;8.50;99.90;;;7.08;100.00;101100.72;4939232;28;19919;-80
2022/10/13 03:31:00;;;;;;;;;;;8.50;99.90;;;7.07;100.00;101104.47;4952112;28;20484;-81
2022/10/13 03:33:26;;;;;;;;;;;8.50;99.90;;;7.07;100.00;101107.19;4938059;28;19945;-79
2022/10/13 03:36:03;;;;;;;;;;;8.50;99.90;;;7.04;100.00;101109.25;4945917;28;19919;-79
2022/10/13 03:38:30;;;;;;;;;;;8.40;99.90;;;7.10;100.00;101109.53;4947952;28;20006;-79
2022/10/13 03:40:55;;;;;;;;;;;8.50;99.90;;;7.11;100.00;101105.78;4936413;28;19918;-78
2022/10/13 03:43:22;;;;;;;;;;;8.50;99.90;;;7.19;100.00;101105.75;4940717;28;19918;-79
2022/10/13 03:45:58;;;;;;;;;;;8.50;99.90;;;7.21;100.00;101103.69;4939115;28;19919;-79
2022/10/13 03:48:24;;;;;;;;;;;8.60;99.90;;;7.26;100.00;101098.53;4943360;28;19923;-84
2022/10/13 03:50:50;;;;;;;;;;;8.70;99.90;;;7.29;100.00;101106.31;4960224;28;19922;-83
2022/10/13 03:53:16;;;;;;;;;;;8.70;99.90;;;7.28;100.00;101104.63;4960708;28;20013;-82
2022/10/13 03:55:47;;;;;;;;;;;8.70;99.90;;;7.27;100.00;101102.94;4958396;28;20476;-82
2022/10/13 03:58:13;;;;;;;;;;;8.70;99.90;;;7.22;100.00;101089.09;4952540;28;19923;-83
2022/10/13 04:00:41;;;;;;;;;;;8.70;99.90;;;7.25;100.00;101104.13;4959305;28;19922;-83
2022/10/13 04:03:07;;;;;;;;;;;8.60;99.90;;;7.20;100.00;101102.00;4962028;28;20017;-81
2022/10/13 04:05:33;;;;;;;;;;;8.60;99.90;;;7.19;100.00;101094.88;4959133;28;19926;-83
2022/10/13 04:07:59;;;;;;;;;;;8.60;99.90;;;7.14;100.00;101109.00;4955598;28;19929;-81
2022/10/13 04:10:26;;;;;;;;;;;8.60;99.90;;;7.08;100.00;101103.44;4961167;28;19922;-81
2022/10/13 04:12:51;;;;;;;;;;;8.50;99.90;;;7.04;100.00;101109.25;4958546;28;19914;-81
2022/10/13 04:15:17;;;;;;;;;;;8.50;99.90;;;6.98;100.00;101107.25;4965289;28;19918;-82
2022/10/13 04:17:42;;;;;;;;;;;8.40;99.90;;;7.02;100.00;101107.72;4962914;28;19919;-83
2022/10/13 04:20:08;;;;;;;;;;;8.50;99.90;;;7.01;100.00;101106.91;4956687;28;19965;-82
2022/10/13 04:22:34;;;;;;;;;;;8.40;99.90;;;6.89;100.00;101092.91;4958185;28;19926;-82
2022/10/13 04:25:00;;;;;;;;;;;8.40;99.90;;;7.05;100.00;101100.06;4959164;28;19929;-83
2022/10/13 04:27:26;;;;;;;;;;;8.50;99.90;;;7.12;100.00;101097.47;4958551;28;19919;-82
2022/10/13 04:29:52;;;;;;;;;;;8.50;99.90;;;7.20;100.00;101102.81;4950215;28;19938;-81
2022/10/13 04:32:18;;;;;;;;;;;8.60;99.90;;;7.24;100.00;101092.47;4957408;28;19966;-82
2022/10/13 04:34:43;;;;;;;;;;;8.60;99.90;;;7.29;100.00;101098.16;4955297;28;19915;-81
2022/10/13 04:37:09;;;;;;;;;;;8.70;99.90;;;7.29;100.00;101090.03;4955784;28;19974;-82
2022/10/13 04:39:35;;;;;;;;;;;8.70;99.90;;;7.18;100.00;101079.63;4943789;28;19918;-84
2022/10/13 04:42:01;;;;;;;;;;;8.60;99.90;;;7.20;100.00;101085.72;4956148;28;19917;-82
2022/10/13 04:44:26;;;;;;;;;;;8.60;99.90;;;7.18;100.00;101085.06;4959696;28;19926;-84
2022/10/13 04:46:52;;;;;;;;;;;8.60;99.90;;;7.14;100.00;101083.72;4966627;28;19997;-83
2022/10/13 04:49:17;;;;;;;;;;;8.50;99.90;;;7.09;100.00;101073.44;4949281;28;19930;-82
2022/10/13 04:51:43;;;;;;;;;;;8.50;99.90;;;6.99;100.00;101064.69;4952813;28;19919;-82
2022/10/13 04:54:09;;;;;;;;;;;8.40;99.90;;;7.00;100.00;101069.09;4958844;28;19915;-82
2022/10/13 04:56:35;;;;;;;;;;;8.40;99.90;;;6.98;100.00;101073.84;4946042;28;20376;-82
2022/10/13 04:59:04;;;;;;;;;;;8.40;99.90;;;6.91;100.00;101065.63;4934813;28;19914;-81
2022/10/13 05:01:29;;;;;;;;;;;8.30;99.90;;;6.95;100.00;101080.50;4946001;28;20463;-83
2022/10/13 05:03:58;;;;;;;;;;;8.30;99.90;;;6.79;100.00;101061.63;4937815;28;20022;-82
2022/10/13 05:06:28;;;;;;;;;;;8.30;99.90;;;6.86;100.00;101074.28;4951093;28;19929;-80
2022/10/13 05:08:57;;;;;;;;;;;8.30;99.90;;;6.84;100.00;101064.63;4937663;28;19944;-82
2022/10/13 05:11:25;;;;;;;;;;;8.20;99.90;;;6.72;100.00;101043.38;4935233;28;19925;-81
2022/10/13 05:13:51;;;;;;;;;;;8.20;99.90;;;6.83;100.00;101066.53;4949855;28;19978;-81
2022/10/13 05:16:18;;;;;;;;;;;8.20;99.90;;;6.99;100.00;101062.81;4940573;29;19965;-82
2022/10/13 05:18:44;;;;;;;;;;;8.30;99.90;;;7.13;100.00;101066.59;4940577;28;19950;-82
2022/10/13 05:21:11;;;;;;;;;;;8.50;99.90;;;7.27;100.00;101054.09;4940388;28;20385;-82
2022/10/13 05:23:37;;;;;;;;;;;8.60;99.90;;;7.41;100.00;101059.69;4949607;28;20330;-82
2022/10/13 05:26:05;;;;;;;;;;;8.70;99.90;;;7.56;100.00;101062.44;4941253;28;19926;-81
2022/10/13 05:28:30;;;;;;;;;;;8.80;99.90;;;7.68;100.00;101058.22;4952187;28;20327;-82
2022/10/13 05:30:56;;;;;;;;;;;9.00;99.90;;;7.66;100.00;101054.88;4940106;28;19926;-77
2022/10/13 05:33:22;;;;;;;;;;;9.00;99.90;;;7.66;100.00;101059.44;4935077;28;19927;-78
2022/10/13 05:35:47;;;;;;;;;;;9.10;99.90;;;7.69;100.00;101050.91;4944029;28;19922;-79
2022/10/13 05:38:13;;;;;;;;;;;9.10;99.90;;;7.68;100.00;101062.81;4944256;28;20151;-78
2022/10/13 05:40:39;;;;;;;;;;;9.10;99.90;;;7.69;100.00;101061.78;4939064;28;19926;-77
2022/10/13 05:43:04;;;;;;;;;;;9.00;99.90;;;7.66;100.00;101054.00;4937093;28;19937;-76
2022/10/13 05:45:32;;;;;;;;;;;9.10;99.90;;;7.69;100.00;101059.91;4932861;28;20136;-79
2022/10/13 05:47:57;;;;;;;;;;;9.10;99.90;;;7.62;100.00;101048.97;4939951;28;20349;-78
2022/10/13 05:50:23;;;;;;;;;;;9.00;99.90;;;7.62;100.00;101050.84;4936729;28;19923;-78
2022/10/13 05:52:50;;;;;;;;;;;9.00;99.90;;;7.62;100.00;101048.97;4940680;28;19929;-81
2022/10/13 05:55:17;;;;;;;;;;;9.00;99.90;;;7.60;100.00;101040.16;4946417;28;20035;-80
2022/10/13 05:57:49;;;;;;;;;;;9.00;99.90;;;7.64;100.00;101046.06;4949733;28;19919;-80
2022/10/13 06:00:18;;;;;;;;;;;9.00;99.90;;;7.60;100.00;101051.00;4943708;28;19919;-79
2022/10/13 06:02:47;;;;;;;;;;;9.00;99.90;;;7.60;100.00;101042.03;4958015;28;19918;-79
2022/10/13 06:05:18;;;;;;;;;;;9.00;99.90;;;7.68;100.00;101032.94;4948721;28;19923;-79
2022/10/13 06:07:46;;;;;;;;;;;9.00;99.90;;;7.55;100.00;101004.59;4956391;28;19911;-80
2022/10/13 06:10:14;;;;;;;;;;;9.10;99.90;;;7.76;100.00;101030.13;4958765;28;20370;-81
2022/10/13 06:12:39;;;;;;;;;;;9.10;99.90;;;7.83;100.00;101036.50;4954431;28;19934;-80
2022/10/13 06:15:05;;;;;;;;;;;9.20;99.90;;;7.90;100.00;101031.97;4949931;28;20437;-80
2022/10/13 06:17:34;;;;;;;;;;;9.30;99.90;;;7.95;100.00;101038.72;4960050;28;19946;-80
2022/10/13 06:20:00;;;;;;;;;;;9.30;99.90;;;7.96;100.00;101045.84;4953079;28;19954;-80
2022/10/13 06:22:26;;;;;;;;;;;9.40;99.90;;;7.99;100.00;101034.59;4973764;28;19918;-80
2022/10/13 06:24:51;;;;;;;;;;;9.40;99.90;;;7.97;100.00;101026.63;4958920;28;19963;-80
2022/10/13 06:27:17;;;;;;;;;;;9.40;99.90;;;8.11;100.00;101029.53;4945826;28;20337;-79
2022/10/13 06:29:45;;;;;;;;;;;9.50;99.90;;;8.20;100.00;101031.09;4963125;28;19933;-78
2022/10/13 06:32:10;;;;;;;;;;;9.60;99.90;;;8.23;100.00;101029.88;4953374;28;19954;-78
2022/10/13 06:34:36;;;;;;;;;;;9.60;99.90;;;8.32;100.00;101031.44;4946906;28;19919;-79
2022/10/13 06:37:02;;;;;;;;;;;9.70;99.90;;;8.32;100.00;101028.72;4957001;28;19915;-79
2022/10/13 06:39:27;;;;;;;;;;;9.70;99.90;;;8.33;100.00;101028.50;4947448;28;19918;-79
2022/10/13 06:41:54;;;;;;;;;;;9.70;99.90;;;8.34;100.00;101023.91;4942484;28;19937;-80
2022/10/13 06:44:31;;;;;;;;;;;9.80;99.90;;;8.43;100.00;101027.34;4936221;28;20041;-78
2022/10/13 06:47:02;;;;;;;;;;;9.80;99.90;;;8.48;100.00;101028.44;4941626;28;19941;-79
2022/10/13 06:49:27;;;;;;;;;;;9.90;99.90;;;8.53;100.00;101029.78;4950143;28;19930;-79
2022/10/13 06:51:53;;;;;;;;;;;9.90;99.90;;;8.53;100.00;101021.63;4943458;28;19923;-78
2022/10/13 06:54:19;;;;;;;;;;;10.00;99.90;;;8.53;100.00;101013.47;4940071;28;20405;-79
2022/10/13 06:56:44;;;;;;;;;;;10.00;99.90;;;8.67;100.00;101036.22;4946880;28;19930;-79
2022/10/13 06:59:10;;;;;;;;;;;10.10;99.90;;;8.65;100.00;101033.66;4956491;28;20005;-80
2022/10/13 07:01:37;;;;;;;;;;;10.10;99.90;;;8.60;100.00;101008.94;4950793;28;19919;-77
2022/10/13 07:04:07;;;;;;;;;;;10.10;99.90;;;8.77;100.00;101023.09;4952843;28;19930;-79
2022/10/13 07:06:33;;;;;;;;;;;10.20;99.90;;;8.70;100.00;101004.00;4944996;28;19914;-78
2022/10/13 07:09:03;;;;;;;;;;;10.20;99.90;;;8.85;100.00;101020.25;4938983;28;19923;-79
2022/10/13 07:11:29;;;;;;;;;;;10.30;99.90;;;8.78;100.00;101003.88;4944448;28;20462;-78
2022/10/13 07:13:55;;;;;;;;;;;10.30;99.90;;;9.03;100.00;101019.78;4939836;28;19918;-80
2022/10/13 07:16:21;;;;;;;;;;;10.40;99.90;;;9.04;100.00;101020.59;4948828;28;20354;-82
2022/10/13 07:18:47;;;;;;;;;;;10.50;99.90;;;9.19;100.00;101028.66;4935637;28;19922;-77
2022/10/13 07:21:13;;;;;;;;;;;10.50;99.90;;;9.32;100.00;101034.22;4944637;28;19957;-79
2022/10/13 07:23:39;;;;;;;;;;;10.60;99.90;;;9.46;100.00;101037.03;4938937;28;19957;-77
2022/10/13 07:26:09;;;;;;;;;;;10.80;99.90;;;9.50;100.00;101047.31;4934038;28;19919;-78
2022/10/13 07:28:35;;;;;;;;;;;10.80;99.90;;;9.54;100.00;101052.38;4936567;28;20337;-78
2022/10/13 07:31:07;;;;;;;;;;;10.80;99.90;;;9.55;100.00;101038.56;4931815;28;20002;-77
2022/10/13 07:33:36;;;;;;;;;;;10.90;99.90;;;9.58;100.00;101024.53;4929777;28;19918;-76
2022/10/13 07:36:03;;;;;;;;;;;11.00;99.90;;;9.58;100.00;101021.81;4942278;28;19923;-78
2022/10/13 07:38:28;;;;;;;;;;;11.00;99.90;;;9.75;100.00;101032.34;4942671;28;19927;-79
2022/10/13 07:40:54;;;;;;;;;;;11.10;99.90;;;9.80;100.00;101027.13;4939818;28;19919;-78
2022/10/13 07:43:20;;;;;;;;;;;11.20;99.90;;;9.88;100.00;101035.16;4927089;28;19925;-81
2022/10/13 07:45:45;;;;;;;;;;;11.30;99.90;;;10.07;100.00;101036.28;4941824;28;20478;-80
2022/10/13 07:48:11;;;;;;;;;;;11.40;99.90;;;10.22;100.00;101032.56;4930594;28;19929;-83
2022/10/13 07:50:37;;;;;;;;;;;11.60;99.90;;;10.29;100.00;101011.59;4930686;28;19922;-83
2022/10/13 07:53:02;;;;;;;;;;;11.80;99.90;;;10.59;100.00;101021.31;4929869;28;19987;-79
2022/10/13 07:55:28;;;;;;;;;;;12.00;99.90;;;11.01;100.00;101034.81;4938152;28;19946;-81
2022/10/13 07:57:59;;;;;;;;;;;12.30;99.90;;;11.29;100.00;101033.75;4931557;28;20001;-78
2022/10/13 08:00:26;;;;;;;;;;;12.60;99.90;;;11.59;100.00;101014.94;4941306;28;19925;-80
2022/10/13 08:02:51;;;;;;;;;;;12.90;99.90;;;11.79;100.00;101020.34;4935305;28;20274;-80
2022/10/13 08:05:17;;;;;;;;;;;13.10;99.90;;;11.92;100.00;101011.25;4937399;28;19962;-84
2022/10/13 08:07:43;;;;;;;;;;;13.30;99.90;;;12.04;100.00;101014.19;4936179;28;19918;-82
2022/10/13 08:10:09;;;;;;;;;;;13.50;99.90;;;12.05;100.00;101010.38;4937277;28;19930;-82
2022/10/13 08:12:35;;;;;;;;;;;13.40;99.90;;;11.93;98.69;101025.78;4933114;28;20005;-83
2022/10/13 08:15:02;;;;;;;;;;;13.40;99.90;;;11.86;99.14;101014.03;4935194;28;19918;-82
2022/10/13 08:17:28;;;;;;;;;;;13.20;99.90;;;11.92;100.00;101010.44;4938097;28;20387;-83
2022/10/13 08:19:54;;;;;;;;;;;13.30;99.90;;;12.02;100.00;101007.25;4935525;28;20009;-82
2022/10/13 08:22:26;;;;;;;;;;;13.40;99.90;;;12.25;98.83;101001.25;4929662;28;20033;-78
2022/10/13 08:24:52;;;;;;;;;;;13.60;99.90;;;12.47;95.78;100999.03;4931588;28;19926;-80
2022/10/13 08:27:20;;;;;;;;;;;13.80;99.90;;;12.52;93.85;101003.81;4926131;28;19958;-83
2022/10/13 08:29:46;;;;;;;;;;;13.80;99.90;;;12.64;93.91;100998.47;4941576;28;19922;-80
2022/10/13 08:32:12;;;;;;;;;;;13.90;99.90;;;12.52;94.86;100984.66;4939734;28;20388;-77
2022/10/13 08:34:37;;;;;;;;;;;13.90;99.90;;;12.45;94.31;100992.91;4932157;28;19918;-79
2022/10/13 08:37:03;;;;;;;;;;;14.00;99.90;;;12.42;95.99;100998.00;4929940;28;20386;-82
2022/10/13 08:39:29;;;;;;;;;;;13.90;99.90;;;12.73;95.35;100996.28;4936648;28;19994;-80
2022/10/13 08:41:56;;;;;;;;;;;14.00;99.90;;;12.82;94.03;101003.16;4933806;28;19937;-78
2022/10/13 08:44:29;;;;;;;;;;;14.20;99.90;;;13.20;90.83;100995.88;4945326;28;19993;-75
2022/10/13 08:47:16;;;;;;;;;;;14.50;99.90;;;13.66;90.45;100993.75;4940945;28;20318;-81
2022/10/13 08:49:42;;;;;;;;;;;14.90;99.90;;;13.80;86.16;100978.78;4944171;28;19933;-80
2022/10/13 08:52:17;;;;;;;;;;;15.50;99.90;;;13.98;86.16;100985.31;4941372;28;19996;-77
2022/10/13 08:54:42;;;;;;;;;;;15.30;99.90;;;14.16;83.03;100994.56;4941468;28;20286;-81
2022/10/13 08:57:09;;;;;;;;;;;15.40;99.90;;;14.43;82.06;101008.75;4936522;28;19946;-81
2022/10/13 08:59:35;;;;;;;;;;;15.70;99.90;;;14.33;80.29;101003.81;4932493;28;19958;-78
2022/10/13 09:02:09;;;;;;;;;;;15.60;99.90;;;14.16;80.40;101011.88;4938179;28;19990;-79
2022/10/13 09:04:40;;;;;;;;;;;15.50;99.90;;;14.10;80.76;100999.91;4942317;28;20230;-75
2022/10/13 09:07:14;;;;;;;;;;;15.40;99.90;;;14.14;79.93;100997.56;4941469;28;19930;-84
2022/10/13 09:09:40;;;;;;;;;;;15.40;99.90;;;14.10;79.45;100982.63;4941787;28;20395;-78
2022/10/13 09:12:06;;;;;;;;;;;15.40;99.90;;;14.24;79.25;100995.09;4939500;28;19962;-81
2022/10/13 09:14:35;;;;;;;;;;;15.50;99.90;;;14.20;79.10;100982.91;4941831;28;19965;-80
2022/10/13 09:17:18;;;;;;;;;;;15.50;99.90;;;14.39;77.51;100996.56;4941150;28;19996;-83
2022/10/13 09:19:56;;;;;;;;;;;15.60;99.90;;;14.60;78.28;100997.13;4938587;28;19934;-79
2022/10/13 09:22:31;;;;;;;;;;;15.70;99.90;;;14.63;75.06;101002.94;4944318;28;20310;-80
2022/10/13 09:25:06;;;;;;;;;;;15.90;99.90;;;14.63;76.30;101007.63;4941573;28;19918;-80
2022/10/13 09:27:51;;;;;;;;;;;15.90;99.90;;;14.99;75.86;101011.28;4943416;28;20427;-81
2022/10/13 09:30:25;;;;;;;;;;;16.10;99.90;;;15.29;73.79;100999.34;4938585;28;19930;-81
2022/10/13 09:33:03;;;;;;;;;;;16.50;99.90;;;15.27;72.42;101017.97;4934570;28;19918;-81
2022/10/13 09:35:33;;;;;;;;;;;16.60;99.90;;;15.30;71.80;101017.50;4931650;28;19949;-76
2022/10/13 09:38:05;;;;;;;;;;;16.60;99.90;;;15.28;72.33;101007.84;4943104;28;20327;-78
2022/10/13 09:40:31;;;;;;;;;;;16.60;99.90;;;15.46;70.78;101006.88;4936832;28;20255;-79
2022/10/13 09:42:59;;;;;;;;;;;16.60;99.90;;;15.48;69.91;101012.94;4933248;28;19923;-81
2022/10/13 09:45:26;;;;;;;;;;;16.80;99.90;;;15.28;71.18;101005.09;4944202;28;19919;-79
2022/10/13 09:48:05;;;;;;;;;;;16.60;99.90;;;14.80;71.95;101003.13;4941352;28;20326;-84
2022/10/13 09:50:33;;;;;;;;;;;16.20;99.90;;;15.42;69.98;101002.94;4940379;28;20409;-81
2022/10/13 09:53:13;;;;;;;;;;;16.40;99.90;;;16.34;67.03;101008.66;4946204;28;19922;-79
2022/10/13 09:55:39;;;;;;;;;;;17.10;99.90;;;17.14;62.98;101010.56;4946225;28;19923;-83
2022/10/13 09:58:19;;;;;;;;;;;18.20;99.90;;;17.60;61.34;101002.97;4934952;28;19919;-80
2022/10/13 10:00:47;;;;;;;;;;;18.80;99.90;;;16.50;64.05;101001.50;4939077;28;19919;-85
2022/10/13 10:03:24;;;;;;;;;;;18.20;99.90;;;16.42;65.19;101012.94;4945720;28;19973;-80
2022/10/13 10:05:52;;;;;;;;;;;17.80;99.90;;;16.21;65.82;101012.53;4941851;28;20345;-79
2022/10/13 10:08:22;;;;;;;;;;;17.60;99.90;;;16.30;65.81;101004.72;4941434;28;19937;-82
2022/10/13 10:10:48;;;;;;;;;;;17.40;99.90;;;17.35;62.31;101012.56;4943956;28;19930;-81
2022/10/13 10:13:14;;;;;;;;;;;17.80;99.90;;;17.63;61.97;101001.59;4945639;28;20224;-78
2022/10/13 10:15:53;;;;;;;;;;;18.40;99.90;;;18.46;58.51;100995.13;4941451;28;19918;-84
2022/10/13 10:18:30;;;;;;;;;;;19.00;99.90;;;18.24;59.30;100990.50;4938120;28;19958;-83
2022/10/13 10:21:30;;;;;;;;;;;19.30;99.90;;;18.40;56.75;100985.13;4937323;28;20446;-83
2022/10/13 10:24:19;;;;;;;;;;;19.50;98.40;;;19.89;54.41;100995.56;4939440;28;20250;-82
2022/10/13 10:26:53;;;;;;;;;;;20.20;97.20;;;19.95;52.85;100988.09;4935130;28;19974;-82
2022/10/13 10:29:44;;;;;;;;;;;20.90;94.50;;;18.80;57.05;100989.34;4942363;28;19954;-83
2022/10/13 10:32:19;;;;;;;;;;;20.40;95.20;;;18.23;59.20;100988.81;4937563;28;20009;-83
2022/10/13 10:35:08;;;;;;;;;;;19.70;96.50;;;18.91;57.33;100994.97;4939710;28;19985;-83
2022/10/13 10:37:53;;;;;;;;;;;19.70;96.50;;;19.28;55.30;100996.06;4950933;28;19950;-84
2022/10/13 10:40:29;;;;;;;;;;;20.00;95.70;;;20.10;53.16;100990.09;4941406;28;19991;-83
2022/10/13 10:43:14;;;;;;;;;;;20.60;94.30;;;20.60;51.60;100984.06;4944518;28;20010;-82
2022/10/13 10:45:43;;;;;;;;;;;21.30;92.70;;;22.20;47.70;100975.31;4956743;28;20417;-78
2022/10/13 10:48:21;;;;;;;;;;;;;;;23.13;43.84;100988.50;4943140;28;19906;-80
2022/10/13 10:50:49;;;;;;;;;;;;;;;25.10;40.77;100993.34;4949357;28;19930;-80
2022/10/13 10:53:32;;;;;;;;;;;;;;;24.77;39.07;100976.63;4945467;28;20282;-82
2022/10/13 10:56:04;;;;;;;;;;;;;;;24.68;37.77;100976.47;4946552;28;19925;-83
2022/10/13 10:58:59;;;;;;;;;;;;;;;23.59;41.51;100978.00;4948317;28;19958;-83
2022/10/13 11:01:36;;;;;;;;;;;;;;;24.32;39.12;100965.91;4949326;28;19919;-82
2022/10/13 11:04:21;;;;;;;;;;;;;;;23.36;41.21;100965.75;4940047;28;19923;-81
2022/10/13 11:06:47;;;;;;;;;;;;;;;24.42;39.28;100957.38;4937521;28;19919;-83
2022/10/13 11:09:13;;;;;;;;;;;;;;;24.95;38.21;100955.41;4941491;28;19926;-83
2022/10/13 11:11:40;;;;;;;;;;;;;;;24.61;38.64;100945.34;4940911;28;19926;-84
2022/10/13 11:14:21;;;;;;;;;;;;;;;24.65;38.51;100950.03;4943416;28;19969;-80
2022/10/13 11:17:02;;;;;;;;;;;;;;;26.34;35.84;100943.28;4938598;28;20334;-81
2022/10/13 11:19:29;;;;;;;;;;;;;;;25.64;35.87;100939.84;4944826;28;19925;-80
2022/10/13 11:21:55;;;;;;;;;;;;;;;25.03;37.12;100929.56;4958928;28;20453;-81
2022/10/13 11:24:38;;;;;;;;;;;;;;;25.82;35.63;100929.66;4939813;28;19930;-82
2022/10/13 11:27:07;;;;;;;;;;;;;;;26.12;35.24;100928.09;4936368;28;19918;-81
2022/10/13 11:29:42;;;;;;;;;;;;;;;27.74;32.84;100930.31;4938690;28;19931;-81
2022/10/13 11:32:23;;;;;;;;;;;;;;;28.91;30.62;100918.38;4941414;28;19922;-80